sensor_id;sensor_type;location;lat;lon;timestamp;pressure;altitude;pressure_sealevel;temperature;humidity
29215;BME280;16252;49.816;7.964;2022-11-18T00:00:28;98132.38;;;11.58;73.72
29215;BME280;16252;49.816;7.964;2022-11-18T00:02:54;98127.72;;;11.60;73.82
29215;BME280;16252;49.816;7.964;2022-11-18T00:05:19;98142.28;;;11.57;73.62
29215;BME280;16252;49.816;7.964;2022-11-18T00:07:44;98134.56;;;11.46;74.04
29215;BME280;16252;49.816;7.964;2022-11-18T00:10:10;98144.63;;;11.52;73.89
29215;BME280;16252;49.816;7.964;2022-11-18T00:12:35;98144.28;;;11.47;73.96
29215;BME280;16252;49.816;7.964;2022-11-18T00:15:22;98152.66;;;11.52;74.13
29215;BME280;16252;49.816;7.964;2022-11-18T00:17:47;98147.13;;;11.45;74.13
29215;BME280;16252;49.816;7.964;2022-11-18T00:20:13;98149.47;;;11.48;74.49
29215;BME280;16252;49.816;7.964;2022-11-18T00:22:38;98142.25;;;11.41;74.56
29215;BME280;16252;49.816;7.964;2022-11-18T00:25:04;98136.22;;;11.39;74.27
29215;BME280;16252;49.816;7.964;2022-11-18T00:27:30;98140.25;;;11.43;74.16
29215;BME280;16252;49.816;7.964;2022-11-18T00:29:56;98123.19;;;11.36;74.37
29215;BME280;16252;49.816;7.964;2022-11-18T00:32:21;98136.56;;;11.44;74.11
29215;BME280;16252;49.816;7.964;2022-11-18T00:34:46;98153.97;;;11.56;73.98
29215;BME280;16252;49.816;7.964;2022-11-18T00:37:12;98132.25;;;11.35;73.89
29215;BME280;16252;49.816;7.964;2022-11-18T00:39:37;98172.38;;;11.51;73.86
29215;BME280;16252;49.816;7.964;2022-11-18T00:42:03;98153.13;;;11.39;73.95
29215;BME280;16252;49.816;7.964;2022-11-18T00:44:47;98159.00;;;11.43;73.89
29215;BME280;16252;49.816;7.964;2022-11-18T00:47:12;98166.69;;;11.46;74.04
29215;BME280;16252;49.816;7.964;2022-11-18T00:49:37;98147.97;;;11.38;74.22
29215;BME280;16252;49.816;7.964;2022-11-18T00:52:03;98155.81;;;11.39;74.45
29215;BME280;16252;49.816;7.964;2022-11-18T00:54:29;98147.13;;;11.37;74.62
29215;BME280;16252;49.816;7.964;2022-11-18T00:56:54;98179.44;;;11.52;74.90
29215;BME280;16252;49.816;7.964;2022-11-18T00:59:20;98157.84;;;11.37;74.65
29215;BME280;16252;49.816;7.964;2022-11-18T01:01:45;98101.44;;;10.98;74.53
29215;BME280;16252;49.816;7.964;2022-11-18T01:04:10;98160.66;;;11.36;74.85
29215;BME280;16252;49.816;7.964;2022-11-18T01:06:36;98160.00;;;11.34;74.83
29215;BME280;16252;49.816;7.964;2022-11-18T01:09:01;98142.75;;;11.28;74.71
29215;BME280;16252;49.816;7.964;2022-11-18T01:11:26;98171.56;;;11.42;74.76
29215;BME280;16252;49.816;7.964;2022-11-18T01:14:10;98153.31;;;11.30;74.72
29215;BME280;16252;49.816;7.964;2022-11-18T01:16:36;98191.13;;;11.51;74.66
29215;BME280;16252;49.816;7.964;2022-11-18T01:19:01;98158.66;;;11.30;74.93
29215;BME280;16252;49.816;7.964;2022-11-18T01:21:27;98209.56;;;11.62;75.02
29215;BME280;16252;49.816;7.964;2022-11-18T01:23:53;98189.47;;;11.50;74.79
29215;BME280;16252;49.816;7.964;2022-11-18T01:26:18;98185.44;;;11.46;74.73
29215;BME280;16252;49.816;7.964;2022-11-18T01:28:44;98187.28;;;11.45;74.55
29215;BME280;16252;49.816;7.964;2022-11-18T01:31:10;98226.13;;;11.66;74.39
29215;BME280;16252;49.816;7.964;2022-11-18T01:33:36;98210.06;;;11.58;74.48
29215;BME280;16252;49.816;7.964;2022-11-18T01:36:02;98205.34;;;11.52;74.36
29215;BME280;16252;49.816;7.964;2022-11-18T01:38:27;98200.84;;;11.52;74.39
29215;BME280;16252;49.816;7.964;2022-11-18T01:40:56;98210.72;;;11.60;74.45
29215;BME280;16252;49.816;7.964;2022-11-18T01:43:22;98228.81;;;11.66;74.44
29215;BME280;16252;49.816;7.964;2022-11-18T01:45:50;98223.28;;;11.67;74.81
29215;BME280;16252;49.816;7.964;2022-11-18T01:48:31;98201.69;;;11.61;74.58
29215;BME280;16252;49.816;7.964;2022-11-18T01:51:05;98217.41;;;11.64;74.53
29215;BME280;16252;49.816;7.964;2022-11-18T01:53:36;98233.66;;;11.70;74.33
29215;BME280;16252;49.816;7.964;2022-11-18T01:56:09;98228.78;;;11.74;74.35
29215;BME280;16252;49.816;7.964;2022-11-18T01:58:49;98218.91;;;11.66;74.29
29215;BME280;16252;49.816;7.964;2022-11-18T02:01:15;98232.84;;;11.70;74.33
29215;BME280;16252;49.816;7.964;2022-11-18T02:03:41;98209.88;;;11.51;74.35
29215;BME280;16252;49.816;7.964;2022-11-18T02:06:09;98206.38;;;11.50;74.63
29215;BME280;16252;49.816;7.964;2022-11-18T02:08:35;98222.28;;;11.60;74.47
29215;BME280;16252;49.816;7.964;2022-11-18T02:11:02;98246.03;;;11.71;74.38
29215;BME280;16252;49.816;7.964;2022-11-18T02:13:28;98210.06;;;11.49;74.74
29215;BME280;16252;49.816;7.964;2022-11-18T02:23:57;98239.69;;;11.73;74.46
29215;BME280;16252;49.816;7.964;2022-11-18T02:26:44;98245.88;;;11.81;74.43
29215;BME280;16252;49.816;7.964;2022-11-18T02:29:23;98217.41;;;11.64;74.55
29215;BME280;16252;49.816;7.964;2022-11-18T02:32:03;98230.31;;;11.68;74.80
29215;BME280;16252;49.816;7.964;2022-11-18T02:34:59;98230.63;;;11.82;74.20
29215;BME280;16252;49.816;7.964;2022-11-18T02:37:55;98237.00;;;11.81;74.48
29215;BME280;16252;49.816;7.964;2022-11-18T02:40:28;98225.28;;;11.65;74.72
29215;BME280;16252;49.816;7.964;2022-11-18T02:43:00;98231.31;;;11.67;74.73
29215;BME280;16252;49.816;7.964;2022-11-18T02:45:27;98220.59;;;11.59;74.79
29215;BME280;16252;49.816;7.964;2022-11-18T02:47:54;98198.50;;;11.49;74.96
29215;BME280;16252;49.816;7.964;2022-11-18T02:50:24;98211.03;;;11.57;75.06
29215;BME280;16252;49.816;7.964;2022-11-18T02:52:57;98236.69;;;11.76;75.05
29215;BME280;16252;49.816;7.964;2022-11-18T02:55:27;98228.81;;;11.66;74.94
29215;BME280;16252;49.816;7.964;2022-11-18T02:57:53;98235.38;;;11.88;74.25
29215;BME280;16252;49.816;7.964;2022-11-18T03:00:20;98181.25;;;11.35;74.48
29215;BME280;16252;49.816;7.964;2022-11-18T03:02:47;98220.44;;;11.53;74.68
29215;BME280;16252;49.816;7.964;2022-11-18T03:05:22;98242.00;;;11.59;74.93
29215;BME280;16252;49.816;7.964;2022-11-18T03:07:56;98248.22;;;11.60;74.88
29215;BME280;16252;49.816;7.964;2022-11-18T03:10:30;98215.38;;;11.33;74.94
29215;BME280;16252;49.816;7.964;2022-11-18T03:16:00;98282.38;;;11.66;74.68
29215;BME280;16252;49.816;7.964;2022-11-18T03:18:31;98285.72;;;11.60;74.92
29215;BME280;16252;49.816;7.964;2022-11-18T03:21:15;98229.09;;;11.30;74.80
29215;BME280;16252;49.816;7.964;2022-11-18T03:23:59;98257.25;;;11.42;74.85
29215;BME280;16252;49.816;7.964;2022-11-18T03:26:32;98276.16;;;11.49;74.97
29215;BME280;16252;49.816;7.964;2022-11-18T03:29:09;98281.84;;;11.54;75.08
29215;BME280;16252;49.816;7.964;2022-11-18T03:31:41;98264.13;;;11.45;75.07
29215;BME280;16252;49.816;7.964;2022-11-18T03:34:12;98245.00;;;11.32;75.16
29215;BME280;16252;49.816;7.964;2022-11-18T03:36:44;98271.97;;;11.46;74.96
29215;BME280;16252;49.816;7.964;2022-11-18T03:39:11;98279.16;;;11.46;75.38
29215;BME280;16252;49.816;7.964;2022-11-18T03:41:44;98230.75;;;11.15;75.44
29215;BME280;16252;49.816;7.964;2022-11-18T03:44:13;98295.44;;;11.61;75.40
29215;BME280;16252;49.816;7.964;2022-11-18T03:46:44;98298.25;;;11.59;75.03
29215;BME280;16252;49.816;7.964;2022-11-18T03:49:16;98291.25;;;11.58;75.26
29215;BME280;16252;49.816;7.964;2022-11-18T03:51:49;98279.34;;;11.53;75.15
29215;BME280;16252;49.816;7.964;2022-11-18T03:54:24;98251.38;;;11.39;75.19
29215;BME280;16252;49.816;7.964;2022-11-18T03:56:57;98288.06;;;11.55;74.72
29215;BME280;16252;49.816;7.964;2022-11-18T03:59:31;98251.69;;;11.27;74.86
29215;BME280;16252;49.816;7.964;2022-11-18T04:02:12;98275.66;;;11.45;74.99
29215;BME280;16252;49.816;7.964;2022-11-18T04:04:39;98308.97;;;11.59;74.98
29215;BME280;16252;49.816;7.964;2022-11-18T04:07:35;98307.81;;;11.62;75.13
29215;BME280;16252;49.816;7.964;2022-11-18T04:10:18;98324.41;;;11.74;74.92
29215;BME280;16252;49.816;7.964;2022-11-18T04:13:04;98294.94;;;11.57;74.76
29215;BME280;16252;49.816;7.964;2022-11-18T04:15:31;98309.66;;;11.53;74.62
29215;BME280;16252;49.816;7.964;2022-11-18T04:17:57;98321.88;;;11.56;74.70
29215;BME280;16252;49.816;7.964;2022-11-18T04:20:23;98302.44;;;11.45;74.47
29215;BME280;16252;49.816;7.964;2022-11-18T04:22:49;98334.25;;;11.57;74.73
29215;BME280;16252;49.816;7.964;2022-11-18T04:25:15;98298.03;;;11.28;74.79
29215;BME280;16252;49.816;7.964;2022-11-18T04:27:40;98320.50;;;11.52;75.00
29215;BME280;16252;49.816;7.964;2022-11-18T04:30:06;98340.28;;;11.59;75.00
29215;BME280;16252;49.816;7.964;2022-11-18T04:32:32;98338.63;;;11.58;74.97
29215;BME280;16252;49.816;7.964;2022-11-18T04:34:57;98336.91;;;11.48;74.59
29215;BME280;16252;49.816;7.964;2022-11-18T04:37:23;98288.34;;;11.27;74.56
29215;BME280;16252;49.816;7.964;2022-11-18T04:39:48;98321.50;;;11.42;74.53
29215;BME280;16252;49.816;7.964;2022-11-18T04:42:14;98314.94;;;11.37;74.63
29215;BME280;16252;49.816;7.964;2022-11-18T04:44:39;98304.75;;;11.32;74.68
29215;BME280;16252;49.816;7.964;2022-11-18T04:47:05;98294.31;;;11.21;74.70
29215;BME280;16252;49.816;7.964;2022-11-18T04:49:32;98348.81;;;11.54;74.84
29215;BME280;16252;49.816;7.964;2022-11-18T04:51:58;98358.53;;;11.55;74.72
29215;BME280;16252;49.816;7.964;2022-11-18T04:54:24;98349.81;;;11.53;74.80
29215;BME280;16252;49.816;7.964;2022-11-18T04:56:50;98318.78;;;11.34;74.69
29215;BME280;16252;49.816;7.964;2022-11-18T04:59:18;98329.53;;;11.42;74.88
29215;BME280;16252;49.816;7.964;2022-11-18T05:01:43;98312.59;;;11.25;74.90
29215;BME280;16252;49.816;7.964;2022-11-18T05:04:21;98337.09;;;11.47;74.82
29215;BME280;16252;49.816;7.964;2022-11-18T05:06:46;98369.75;;;11.59;74.82
29215;BME280;16252;49.816;7.964;2022-11-18T05:09:12;98371.44;;;11.60;75.03
29215;BME280;16252;49.816;7.964;2022-11-18T05:11:37;98280.38;;;11.01;74.92
29215;BME280;16252;49.816;7.964;2022-11-18T05:14:27;98358.34;;;11.57;75.38
29215;BME280;16252;49.816;7.964;2022-11-18T05:16:53;98346.94;;;11.46;75.32
29215;BME280;16252;49.816;7.964;2022-11-18T05:19:19;98369.06;;;11.57;75.40
29215;BME280;16252;49.816;7.964;2022-11-18T05:21:44;98280.69;;;10.98;75.20
29215;BME280;16252;49.816;7.964;2022-11-18T05:24:10;98360.03;;;11.49;75.17
29215;BME280;16252;49.816;7.964;2022-11-18T05:26:35;98332.34;;;11.33;75.26
29215;BME280;16252;49.816;7.964;2022-11-18T05:29:00;98368.72;;;11.52;75.17
29215;BME280;16252;49.816;7.964;2022-11-18T05:31:26;98373.25;;;11.51;75.41
29215;BME280;16252;49.816;7.964;2022-11-18T05:33:51;98391.88;;;11.69;75.49
29215;BME280;16252;49.816;7.964;2022-11-18T05:36:18;98250.38;;;10.81;75.31
29215;BME280;16252;49.816;7.964;2022-11-18T05:38:43;98385.47;;;11.62;75.10
29215;BME280;16252;49.816;7.964;2022-11-18T05:41:09;98410.13;;;11.74;75.32
29215;BME280;16252;49.816;7.964;2022-11-18T05:43:35;98319.22;;;11.13;75.21
29215;BME280;16252;49.816;7.964;2022-11-18T05:46:02;98428.41;;;11.78;75.19
29215;BME280;16252;49.816;7.964;2022-11-18T05:48:28;98427.72;;;11.76;75.01
29215;BME280;16252;49.816;7.964;2022-11-18T05:50:54;98429.91;;;11.73;74.96
29215;BME280;16252;49.816;7.964;2022-11-18T05:53:22;98378.03;;;11.39;75.01
29215;BME280;16252;49.816;7.964;2022-11-18T05:56:03;98415.47;;;11.57;74.96
29215;BME280;16252;49.816;7.964;2022-11-18T05:58:31;98409.88;;;11.42;74.96
29215;BME280;16252;49.816;7.964;2022-11-18T06:01:00;98420.13;;;11.47;75.05
29215;BME280;16252;49.816;7.964;2022-11-18T06:03:29;98440.88;;;11.53;75.09
29215;BME280;16252;49.816;7.964;2022-11-18T06:05:57;98427.75;;;11.42;74.98
29215;BME280;16252;49.816;7.964;2022-11-18T06:08:28;98427.75;;;11.42;75.18
29215;BME280;16252;49.816;7.964;2022-11-18T06:10:56;98422.19;;;11.27;74.94
29215;BME280;16252;49.816;7.964;2022-11-18T06:13:25;98403.38;;;11.11;75.34
29215;BME280;16252;49.816;7.964;2022-11-18T06:15:53;98452.16;;;11.31;75.00
29215;BME280;16252;49.816;7.964;2022-11-18T06:20:44;98424.25;;;11.07;75.23
29215;BME280;16252;49.816;7.964;2022-11-18T06:23:10;98443.72;;;11.17;75.21
29215;BME280;16252;49.816;7.964;2022-11-18T06:25:39;98479.97;;;11.38;75.54
29215;BME280;16252;49.816;7.964;2022-11-18T06:28:05;98467.03;;;11.25;75.31
29215;BME280;16252;49.816;7.964;2022-11-18T06:30:31;98465.19;;;11.25;75.48
29215;BME280;16252;49.816;7.964;2022-11-18T06:32:57;98447.38;;;11.16;75.42
29215;BME280;16252;49.816;7.964;2022-11-18T06:35:22;98466.34;;;11.23;75.35
29215;BME280;16252;49.816;7.964;2022-11-18T06:37:47;98455.59;;;11.15;75.25
29215;BME280;16252;49.816;7.964;2022-11-18T06:40:12;98391.25;;;10.72;75.26
29215;BME280;16252;49.816;7.964;2022-11-18T06:42:38;98483.59;;;11.28;75.20
29215;BME280;16252;49.816;7.964;2022-11-18T06:45:22;98465.28;;;11.16;74.94
29215;BME280;16252;49.816;7.964;2022-11-18T06:47:47;98431.56;;;10.97;75.05
29215;BME280;16252;49.816;7.964;2022-11-18T06:50:12;98474.50;;;11.21;75.12
29215;BME280;16252;49.816;7.964;2022-11-18T06:52:38;98489.13;;;11.27;75.25
29215;BME280;16252;49.816;7.964;2022-11-18T06:55:03;98476.22;;;11.22;75.34
29215;BME280;16252;49.816;7.964;2022-11-18T06:57:32;98486.75;;;11.24;75.51
29215;BME280;16252;49.816;7.964;2022-11-18T06:59:57;98459.19;;;11.05;75.17
29215;BME280;16252;49.816;7.964;2022-11-18T07:02:22;98492.63;;;11.27;75.42
29215;BME280;16252;49.816;7.964;2022-11-18T07:04:47;98501.34;;;11.30;75.40
29215;BME280;16252;49.816;7.964;2022-11-18T07:07:13;98488.59;;;11.23;75.35
29215;BME280;16252;49.816;7.964;2022-11-18T07:09:38;98499.97;;;11.25;75.61
29215;BME280;16252;49.816;7.964;2022-11-18T07:12:04;98507.69;;;11.28;75.51
29215;BME280;16252;49.816;7.964;2022-11-18T07:14:29;98535.41;;;11.45;75.33
29215;BME280;16252;49.816;7.964;2022-11-18T07:16:55;98474.44;;;11.05;75.15
29215;BME280;16252;49.816;7.964;2022-11-18T07:19:20;98528.00;;;11.39;75.28
29215;BME280;16252;49.816;7.964;2022-11-18T07:21:46;98513.41;;;11.34;75.23
29215;BME280;16252;49.816;7.964;2022-11-18T07:24:13;98541.00;;;11.52;75.45
29215;BME280;16252;49.816;7.964;2022-11-18T07:26:39;98527.53;;;11.44;75.48
29215;BME280;16252;49.816;7.964;2022-11-18T07:29:05;98535.56;;;11.44;75.53
29215;BME280;16252;49.816;7.964;2022-11-18T07:31:30;98521.28;;;11.35;75.61
29215;BME280;16252;49.816;7.964;2022-11-18T07:33:56;98561.25;;;11.55;75.67
29215;BME280;16252;49.816;7.964;2022-11-18T07:36:25;98535.56;;;11.44;75.85
29215;BME280;16252;49.816;7.964;2022-11-18T07:38:51;98523.59;;;11.30;75.54
29215;BME280;16252;49.816;7.964;2022-11-18T07:41:18;98558.25;;;11.58;75.50
29215;BME280;16252;49.816;7.964;2022-11-18T07:43:44;98549.97;;;11.43;75.21
29215;BME280;16252;49.816;7.964;2022-11-18T07:48:41;98567.78;;;11.52;75.14
29215;BME280;16252;49.816;7.964;2022-11-18T07:53:42;98556.94;;;11.36;74.99
29215;BME280;16252;49.816;7.964;2022-11-18T07:56:08;98589.13;;;11.44;75.16
29215;BME280;16252;49.816;7.964;2022-11-18T07:58:34;98569.13;;;11.30;75.17
29215;BME280;16252;49.816;7.964;2022-11-18T08:01:06;98566.44;;;11.30;75.29
29215;BME280;16252;49.816;7.964;2022-11-18T08:03:31;98569.72;;;11.24;75.31
29215;BME280;16252;49.816;7.964;2022-11-18T08:06:01;98596.19;;;11.45;75.46
29215;BME280;16252;49.816;7.964;2022-11-18T08:08:27;98603.53;;;11.43;75.43
29215;BME280;16252;49.816;7.964;2022-11-18T08:10:56;98601.34;;;11.46;75.16
29215;BME280;16252;49.816;7.964;2022-11-18T08:13:22;98580.16;;;11.27;75.29
29215;BME280;16252;49.816;7.964;2022-11-18T08:15:48;98590.09;;;11.35;75.33
29215;BME280;16252;49.816;7.964;2022-11-18T08:18:13;98595.13;;;11.38;75.37
29215;BME280;16252;49.816;7.964;2022-11-18T08:20:38;98610.09;;;11.48;75.18
29215;BME280;16252;49.816;7.964;2022-11-18T08:23:04;98570.59;;;11.24;75.33
29215;BME280;16252;49.816;7.964;2022-11-18T08:25:29;98620.47;;;11.52;75.15
29215;BME280;16252;49.816;7.964;2022-11-18T08:27:54;98613.59;;;11.49;75.05
29215;BME280;16252;49.816;7.964;2022-11-18T08:30:19;98594.94;;;11.39;75.07
29215;BME280;16252;49.816;7.964;2022-11-18T08:32:45;98613.91;;;11.46;74.96
29215;BME280;16252;49.816;7.964;2022-11-18T08:35:10;98618.81;;;11.50;75.15
29215;BME280;16252;49.816;7.964;2022-11-18T08:37:35;98614.97;;;11.53;75.17
29215;BME280;16252;49.816;7.964;2022-11-18T08:40:01;98630.25;;;11.61;75.22
29215;BME280;16252;49.816;7.964;2022-11-18T08:42:26;98608.25;;;11.49;75.02
29215;BME280;16252;49.816;7.964;2022-11-18T08:44:51;98606.94;;;11.53;75.15
29215;BME280;16252;49.816;7.964;2022-11-18T08:47:16;98622.91;;;11.63;75.09
29215;BME280;16252;49.816;7.964;2022-11-18T08:49:42;98628.47;;;11.69;75.16
29215;BME280;16252;49.816;7.964;2022-11-18T08:52:08;98633.53;;;11.73;75.02
29215;BME280;16252;49.816;7.964;2022-11-18T08:54:33;98585.00;;;11.49;75.17
29215;BME280;16252;49.816;7.964;2022-11-18T08:56:59;98631.88;;;11.80;75.15
29215;BME280;16252;49.816;7.964;2022-11-18T08:59:24;98625.53;;;11.81;75.28
29215;BME280;16252;49.816;7.964;2022-11-18T09:01:50;98638.69;;;11.92;74.95
29215;BME280;16252;49.816;7.964;2022-11-18T09:04:15;98597.31;;;11.68;74.75
29215;BME280;16252;49.816;7.964;2022-11-18T09:06:40;98627.28;;;11.90;74.68
29215;BME280;16252;49.816;7.964;2022-11-18T09:09:06;98653.81;;;12.01;74.80
29215;BME280;16252;49.816;7.964;2022-11-18T09:11:32;98610.97;;;11.83;74.92
29215;BME280;16252;49.816;7.964;2022-11-18T09:13:59;98638.06;;;11.98;74.76
29215;BME280;16252;49.816;7.964;2022-11-18T09:16:27;98660.28;;;12.17;75.09
29215;BME280;16252;49.816;7.964;2022-11-18T09:18:54;98655.75;;;12.17;75.00
29215;BME280;16252;49.816;7.964;2022-11-18T09:21:20;98663.66;;;12.27;75.30
29215;BME280;16252;49.816;7.964;2022-11-18T09:23:46;98641.03;;;12.21;75.34
29215;BME280;16252;49.816;7.964;2022-11-18T09:26:13;98648.63;;;12.34;75.21
29215;BME280;16252;49.816;7.964;2022-11-18T09:28:38;98662.41;;;12.47;75.58
29215;BME280;16252;49.816;7.964;2022-11-18T09:31:13;98648.38;;;12.53;75.56
29215;BME280;16252;49.816;7.964;2022-11-18T09:33:39;98661.63;;;12.63;75.53
29215;BME280;16252;49.816;7.964;2022-11-18T09:36:11;98671.06;;;12.84;75.44
29215;BME280;16252;49.816;7.964;2022-11-18T09:38:37;98641.38;;;12.69;75.42
29215;BME280;16252;49.816;7.964;2022-11-18T09:48:56;98660.88;;;13.04;74.64
29215;BME280;16252;49.816;7.964;2022-11-18T09:51:48;98671.13;;;13.16;74.23
29215;BME280;16252;49.816;7.964;2022-11-18T09:54:34;98703.09;;;13.44;74.17
29215;BME280;16252;49.816;7.964;2022-11-18T09:57:00;98698.06;;;13.41;74.63
29215;BME280;16252;49.816;7.964;2022-11-18T09:59:29;98693.38;;;13.43;74.83
29215;BME280;16252;49.816;7.964;2022-11-18T10:04:51;98710.34;;;13.68;74.91
29215;BME280;16252;49.816;7.964;2022-11-18T10:07:21;98713.00;;;13.84;74.56
29215;BME280;16252;49.816;7.964;2022-11-18T10:09:55;98719.38;;;13.92;74.41
29215;BME280;16252;49.816;7.964;2022-11-18T10:12:23;98710.66;;;13.98;74.26
29215;BME280;16252;49.816;7.964;2022-11-18T10:15:06;98720.00;;;14.10;73.78
29215;BME280;16252;49.816;7.964;2022-11-18T10:25:12;98695.69;;;14.03;71.68
29215;BME280;16252;49.816;7.964;2022-11-18T10:27:40;98695.50;;;13.97;71.97
29215;BME280;16252;49.816;7.964;2022-11-18T10:30:19;98729.41;;;14.22;72.31
29215;BME280;16252;49.816;7.964;2022-11-18T10:32:59;98637.25;;;13.73;72.28
29215;BME280;16252;49.816;7.964;2022-11-18T10:35:33;98731.72;;;14.42;72.54
29215;BME280;16252;49.816;7.964;2022-11-18T10:38:15;98738.13;;;14.32;72.27
29215;BME280;16252;49.816;7.964;2022-11-18T10:40:55;98740.50;;;14.36;72.41
29215;BME280;16252;49.816;7.964;2022-11-18T10:43:51;98739.63;;;14.43;71.89
29215;BME280;16252;49.816;7.964;2022-11-18T10:48:42;98732.28;;;14.29;71.73
29215;BME280;16252;49.816;7.964;2022-11-18T10:51:22;98732.09;;;14.39;71.20
29215;BME280;16252;49.816;7.964;2022-11-18T10:53:47;98737.13;;;14.34;71.21
29215;BME280;16252;49.816;7.964;2022-11-18T10:56:13;98736.81;;;14.28;71.52
29215;BME280;16252;49.816;7.964;2022-11-18T10:58:49;98724.88;;;14.23;71.07
29215;BME280;16252;49.816;7.964;2022-11-18T11:03:42;98739.16;;;14.31;71.16
29215;BME280;16252;49.816;7.964;2022-11-18T11:06:31;98732.94;;;14.31;70.79
29215;BME280;16252;49.816;7.964;2022-11-18T11:11:30;98729.22;;;14.32;70.64
29215;BME280;16252;49.816;7.964;2022-11-18T11:14:03;98702.19;;;14.17;70.88
29215;BME280;16252;49.816;7.964;2022-11-18T11:16:31;98731.75;;;14.25;70.78
29215;BME280;16252;49.816;7.964;2022-11-18T11:19:01;98719.31;;;14.24;70.47
29215;BME280;16252;49.816;7.964;2022-11-18T11:21:28;98718.53;;;14.16;70.61
29215;BME280;16252;49.816;7.964;2022-11-18T11:23:54;98726.03;;;14.20;70.38
29215;BME280;16252;49.816;7.964;2022-11-18T11:26:33;98733.09;;;14.29;70.13
29215;BME280;16252;49.816;7.964;2022-11-18T11:34:45;98715.28;;;14.20;69.97
29215;BME280;16252;49.816;7.964;2022-11-18T11:37:21;98750.25;;;14.37;69.72
29215;BME280;16252;49.816;7.964;2022-11-18T11:45:19;98758.81;;;14.48;68.60
29215;BME280;16252;49.816;7.964;2022-11-18T11:50:55;98756.94;;;14.49;68.23
29215;BME280;16252;49.816;7.964;2022-11-18T11:53:43;98759.31;;;14.44;67.83
29215;BME280;16252;49.816;7.964;2022-11-18T11:56:15;98750.94;;;14.30;67.32
29215;BME280;16252;49.816;7.964;2022-11-18T11:58:55;98758.00;;;14.31;66.84
29215;BME280;16252;49.816;7.964;2022-11-18T12:06:28;98751.78;;;14.15;68.64
29215;BME280;16252;49.816;7.964;2022-11-18T12:09:07;98743.56;;;14.16;67.88
29215;BME280;16252;49.816;7.964;2022-11-18T12:11:44;98762.88;;;14.20;68.00
29215;BME280;16252;49.816;7.964;2022-11-18T12:14:26;98751.31;;;14.11;68.42
29215;BME280;16252;49.816;7.964;2022-11-18T12:19:38;98762.41;;;14.08;68.64
29215;BME280;16252;49.816;7.964;2022-11-18T12:22:03;98758.38;;;14.04;68.58
29215;BME280;16252;49.816;7.964;2022-11-18T12:24:40;98767.09;;;14.14;68.14
29215;BME280;16252;49.816;7.964;2022-11-18T12:29:58;98761.56;;;14.16;68.19
29215;BME280;16252;49.816;7.964;2022-11-18T12:32:38;98764.72;;;14.19;67.74
29215;BME280;16252;49.816;7.964;2022-11-18T12:43:01;98770.13;;;14.19;66.33
29215;BME280;16252;49.816;7.964;2022-11-18T12:45:52;98759.84;;;14.15;65.75
29215;BME280;16252;49.816;7.964;2022-11-18T12:48:31;98779.69;;;14.22;67.09
29215;BME280;16252;49.816;7.964;2022-11-18T12:51:37;98773.13;;;14.24;67.59
29215;BME280;16252;49.816;7.964;2022-11-18T12:54:20;98790.78;;;14.27;66.33
29215;BME280;16252;49.816;7.964;2022-11-18T12:56:48;98786.09;;;14.21;67.12
29215;BME280;16252;49.816;7.964;2022-11-18T12:59:14;98760.38;;;14.02;66.53
29215;BME280;16252;49.816;7.964;2022-11-18T13:01:39;98782.41;;;14.14;66.52
29215;BME280;16252;49.816;7.964;2022-11-18T13:04:11;98785.22;;;14.20;66.67
29215;BME280;16252;49.816;7.964;2022-11-18T13:06:38;98790.28;;;14.15;66.42
29215;BME280;16252;49.816;7.964;2022-11-18T13:09:14;98773.16;;;14.08;66.67
29215;BME280;16252;49.816;7.964;2022-11-18T13:11:53;98790.13;;;14.17;65.97
29215;BME280;16252;49.816;7.964;2022-11-18T13:14:34;98793.16;;;14.14;66.32
29215;BME280;16252;49.816;7.964;2022-11-18T13:17:30;98771.16;;;13.94;66.18
29215;BME280;16252;49.816;7.964;2022-11-18T13:22:59;98789.13;;;14.01;65.98
29215;BME280;16252;49.816;7.964;2022-11-18T13:25:44;98782.25;;;13.91;65.89
29215;BME280;16252;49.816;7.964;2022-11-18T13:33:36;98785.91;;;13.90;66.20
29215;BME280;16252;49.816;7.964;2022-11-18T13:36:02;98794.50;;;13.93;66.08
29215;BME280;16252;49.816;7.964;2022-11-18T13:38:27;98785.59;;;13.84;66.02
29215;BME280;16252;49.816;7.964;2022-11-18T13:40:52;98795.69;;;13.91;66.48
29215;BME280;16252;49.816;7.964;2022-11-18T13:43:35;98771.66;;;13.81;65.71
29215;BME280;16252;49.816;7.964;2022-11-18T13:46:12;98781.72;;;13.87;65.59
29215;BME280;16252;49.816;7.964;2022-11-18T13:48:45;98775.50;;;13.78;65.59
29215;BME280;16252;49.816;7.964;2022-11-18T13:51:13;98790.31;;;13.82;66.02
29215;BME280;16252;49.816;7.964;2022-11-18T13:53:39;98789.63;;;13.80;66.23
29215;BME280;16252;49.816;7.964;2022-11-18T13:56:06;98802.38;;;13.86;66.08
29215;BME280;16252;49.816;7.964;2022-11-18T14:01:18;98812.31;;;13.86;65.56
29215;BME280;16252;49.816;7.964;2022-11-18T14:06:27;98795.50;;;13.76;65.87
29215;BME280;16252;49.816;7.964;2022-11-18T14:11:39;98800.03;;;13.75;66.08
29215;BME280;16252;49.816;7.964;2022-11-18T14:14:05;98811.13;;;13.80;66.05
29215;BME280;16252;49.816;7.964;2022-11-18T14:16:35;98815.69;;;13.88;66.09
29215;BME280;16252;49.816;7.964;2022-11-18T14:19:01;98788.28;;;13.68;66.17
29215;BME280;16252;49.816;7.964;2022-11-18T14:21:28;98820.53;;;13.84;66.25
29215;BME280;16252;49.816;7.964;2022-11-18T14:23:54;98803.72;;;13.74;66.22
29215;BME280;16252;49.816;7.964;2022-11-18T14:26:28;98824.59;;;13.88;65.86
29215;BME280;16252;49.816;7.964;2022-11-18T14:29:01;98826.94;;;13.83;66.02
29215;BME280;16252;49.816;7.964;2022-11-18T14:31:29;98826.59;;;13.78;65.82
29215;BME280;16252;49.816;7.964;2022-11-18T14:36:42;98804.53;;;13.58;66.27
29215;BME280;16252;49.816;7.964;2022-11-18T14:39:12;98822.19;;;13.69;65.81
29215;BME280;16252;49.816;7.964;2022-11-18T14:41:37;98835.19;;;13.90;66.27
29215;BME280;16252;49.816;7.964;2022-11-18T14:44:12;98811.44;;;13.53;65.69
29215;BME280;16252;49.816;7.964;2022-11-18T14:46:38;98828.06;;;13.56;66.17
29215;BME280;16252;49.816;7.964;2022-11-18T14:49:12;98812.75;;;13.40;65.71